sensor_id;sensor_type;location;lat;lon;timestamp;pressure;altitude;pressure_sealevel;temperature;humidity
14343;BME280;7255;53.596;9.960;2023-04-28T00:00:50;101585.69;;;7.23;nan
14343;BME280;7255;53.596;9.960;2023-04-28T00:03:16;101577.41;;;7.18;nan
14343;BME280;7255;53.596;9.960;2023-04-28T00:05:43;101577.75;;;7.15;nan
14343;BME280;7255;53.596;9.960;2023-04-28T00:08:10;101570.66;;;7.07;nan
14343;BME280;7255;53.596;9.960;2023-04-28T00:10:37;101567.06;;;7.15;nan
14343;BME280;7255;53.596;9.960;2023-04-28T00:13:03;101573.63;;;7.12;nan
14343;BME280;7255;53.596;9.960;2023-04-28T00:15:31;101576.94;;;7.15;nan
14343;BME280;7255;53.596;9.960;2023-04-28T00:17:57;101573.00;;;7.25;nan
14343;BME280;7255;53.596;9.960;2023-04-28T00:20:24;101570.38;;;7.17;nan
14343;BME280;7255;53.596;9.960;2023-04-28T00:22:50;101575.25;;;7.13;nan
14343;BME280;7255;53.596;9.960;2023-04-28T00:25:17;101561.12;;;7.05;nan
14343;BME280;7255;53.596;9.960;2023-04-28T00:27:43;101562.22;;;6.96;nan
14343;BME280;7255;53.596;9.960;2023-04-28T00:30:10;101560.56;;;6.94;nan
14343;BME280;7255;53.596;9.960;2023-04-28T00:32:37;101562.59;;;6.92;nan
14343;BME280;7255;53.596;9.960;2023-04-28T00:35:04;101555.94;;;6.88;nan
14343;BME280;7255;53.596;9.960;2023-04-28T00:37:34;101548.47;;;6.84;nan
14343;BME280;7255;53.596;9.960;2023-04-28T00:40:01;101552.13;;;6.83;nan
14343;BME280;7255;53.596;9.960;2023-04-28T00:42:27;101553.94;;;6.67;nan
14343;BME280;7255;53.596;9.960;2023-04-28T00:44:53;101529.13;;;6.59;nan
14343;BME280;7255;53.596;9.960;2023-04-28T00:47:20;101532.56;;;6.67;nan
14343;BME280;7255;53.596;9.960;2023-04-28T00:49:47;101536.84;;;6.53;nan
14343;BME280;7255;53.596;9.960;2023-04-28T00:52:14;101526.88;;;6.47;nan
14343;BME280;7255;53.596;9.960;2023-04-28T00:54:41;101515.13;;;6.33;nan
14343;BME280;7255;53.596;9.960;2023-04-28T00:57:08;101522.00;;;6.28;nan
14343;BME280;7255;53.596;9.960;2023-04-28T00:59:35;101502.91;;;6.16;nan
14343;BME280;7255;53.596;9.960;2023-04-28T01:02:02;101507.28;;;6.09;nan
14343;BME280;7255;53.596;9.960;2023-04-28T01:04:29;101526.47;;;6.04;nan
14343;BME280;7255;53.596;9.960;2023-04-28T01:06:57;101506.66;;;5.98;nan
14343;BME280;7255;53.596;9.960;2023-04-28T01:09:25;101498.31;;;5.93;nan
14343;BME280;7255;53.596;9.960;2023-04-28T01:11:52;101502.72;;;5.86;nan
14343;BME280;7255;53.596;9.960;2023-04-28T01:14:19;101506.59;;;5.75;nan
14343;BME280;7255;53.596;9.960;2023-04-28T01:16:46;101506.12;;;5.72;nan
14343;BME280;7255;53.596;9.960;2023-04-28T01:19:16;101515.44;;;5.68;nan
14343;BME280;7255;53.596;9.960;2023-04-28T01:21:45;101509.28;;;5.67;nan
14343;BME280;7255;53.596;9.960;2023-04-28T01:24:13;101491.50;;;5.59;nan
14343;BME280;7255;53.596;9.960;2023-04-28T01:26:39;101508.25;;;5.76;nan
14343;BME280;7255;53.596;9.960;2023-04-28T01:29:06;101495.53;;;5.55;nan
14343;BME280;7255;53.596;9.960;2023-04-28T01:31:32;101490.19;;;5.55;nan
14343;BME280;7255;53.596;9.960;2023-04-28T01:33:58;101490.53;;;5.52;nan
14343;BME280;7255;53.596;9.960;2023-04-28T01:36:25;101486.59;;;5.24;nan
14343;BME280;7255;53.596;9.960;2023-04-28T01:38:51;101484.63;;;5.26;nan
14343;BME280;7255;53.596;9.960;2023-04-28T01:41:19;101475.81;;;5.17;nan
14343;BME280;7255;53.596;9.960;2023-04-28T01:43:46;101478.66;;;5.15;nan
14343;BME280;7255;53.596;9.960;2023-04-28T01:46:12;101475.81;;;5.17;nan
14343;BME280;7255;53.596;9.960;2023-04-28T01:48:39;101476.00;;;5.07;nan
14343;BME280;7255;53.596;9.960;2023-04-28T01:51:05;101464.88;;;4.87;nan
14343;BME280;7255;53.596;9.960;2023-04-28T01:53:31;101469.53;;;4.93;nan
14343;BME280;7255;53.596;9.960;2023-04-28T01:55:58;101472.19;;;5.01;nan
14343;BME280;7255;53.596;9.960;2023-04-28T01:58:25;101465.22;;;5.00;nan
14343;BME280;7255;53.596;9.960;2023-04-28T02:00:52;101466.34;;;4.98;nan
14343;BME280;7255;53.596;9.960;2023-04-28T02:03:18;101456.22;;;4.85;nan
14343;BME280;7255;53.596;9.960;2023-04-28T02:05:44;101456.91;;;4.79;nan
14343;BME280;7255;53.596;9.960;2023-04-28T02:08:11;101452.56;;;4.86;nan
14343;BME280;7255;53.596;9.960;2023-04-28T02:10:37;101449.09;;;4.77;nan
14343;BME280;7255;53.596;9.960;2023-04-28T02:13:03;101441.75;;;4.79;nan
14343;BME280;7255;53.596;9.960;2023-04-28T02:15:31;101448.75;;;4.80;nan
14343;BME280;7255;53.596;9.960;2023-04-28T02:17:57;101447.75;;;4.90;nan
14343;BME280;7255;53.596;9.960;2023-04-28T02:20:25;101448.91;;;4.87;nan
14343;BME280;7255;53.596;9.960;2023-04-28T02:22:51;101451.91;;;4.76;nan
14343;BME280;7255;53.596;9.960;2023-04-28T02:25:18;101434.94;;;4.69;nan
14343;BME280;7255;53.596;9.960;2023-04-28T02:27:44;101439.25;;;4.78;nan
14343;BME280;7255;53.596;9.960;2023-04-28T02:30:11;101426.31;;;4.67;nan
14343;BME280;7255;53.596;9.960;2023-04-28T02:32:39;101426.66;;;4.63;nan
14343;BME280;7255;53.596;9.960;2023-04-28T02:35:06;101427.97;;;4.68;nan
14343;BME280;7255;53.596;9.960;2023-04-28T02:37:32;101430.31;;;4.62;nan
14343;BME280;7255;53.596;9.960;2023-04-28T02:39:59;101420.97;;;4.67;nan
14343;BME280;7255;53.596;9.960;2023-04-28T02:42:25;101359.44;;;4.61;nan
14343;BME280;7255;53.596;9.960;2023-04-28T02:44:51;101406.03;;;4.41;nan
14343;BME280;7255;53.596;9.960;2023-04-28T02:47:18;101408.22;;;4.46;nan
14343;BME280;7255;53.596;9.960;2023-04-28T02:49:46;101408.34;;;4.52;nan
14343;BME280;7255;53.596;9.960;2023-04-28T02:52:12;101410.84;;;4.54;nan
14343;BME280;7255;53.596;9.960;2023-04-28T02:54:39;101403.22;;;4.42;nan
14343;BME280;7255;53.596;9.960;2023-04-28T02:57:06;101400.88;;;4.48;nan
14343;BME280;7255;53.596;9.960;2023-04-28T02:59:32;101392.38;;;4.52;nan
14343;BME280;7255;53.596;9.960;2023-04-28T03:01:59;101388.56;;;4.47;nan
14343;BME280;7255;53.596;9.960;2023-04-28T03:04:26;101381.75;;;4.36;nan
14343;BME280;7255;53.596;9.960;2023-04-28T03:06:53;101381.75;;;4.36;nan
14343;BME280;7255;53.596;9.960;2023-04-28T03:09:20;101383.59;;;4.43;nan
14343;BME280;7255;53.596;9.960;2023-04-28T03:11:46;101376.94;;;4.39;nan
14343;BME280;7255;53.596;9.960;2023-04-28T03:14:12;101359.81;;;4.42;nan
14343;BME280;7255;53.596;9.960;2023-04-28T03:16:39;101361.66;;;4.33;nan
14343;BME280;7255;53.596;9.960;2023-04-28T03:19:05;101358.13;;;4.41;nan
14343;BME280;7255;53.596;9.960;2023-04-28T03:21:31;101347.50;;;4.41;nan
14343;BME280;7255;53.596;9.960;2023-04-28T03:23:59;101353.81;;;4.32;nan
14343;BME280;7255;53.596;9.960;2023-04-28T03:26:25;101352.00;;;4.24;nan
14343;BME280;7255;53.596;9.960;2023-04-28T03:28:52;101351.00;;;4.33;nan
14343;BME280;7255;53.596;9.960;2023-04-28T03:31:18;101352.00;;;4.40;nan
14343;BME280;7255;53.596;9.960;2023-04-28T03:33:44;101351.81;;;4.34;nan
14343;BME280;7255;53.596;9.960;2023-04-28T03:36:11;101347.19;;;4.28;nan
14343;BME280;7255;53.596;9.960;2023-04-28T03:38:37;101323.25;;;4.19;nan
14343;BME280;7255;53.596;9.960;2023-04-28T03:41:05;101343.03;;;4.25;nan
14343;BME280;7255;53.596;9.960;2023-04-28T03:43:31;101342.56;;;4.21;nan
14343;BME280;7255;53.596;9.960;2023-04-28T03:45:59;101336.25;;;4.14;nan
14343;BME280;7255;53.596;9.960;2023-04-28T03:48:26;101327.75;;;4.19;nan
14343;BME280;7255;53.596;9.960;2023-04-28T03:50:52;101328.22;;;4.22;nan
14343;BME280;7255;53.596;9.960;2023-04-28T03:53:19;101331.22;;;4.28;nan
14343;BME280;7255;53.596;9.960;2023-04-28T03:55:45;101321.59;;;4.18;nan
14343;BME280;7255;53.596;9.960;2023-04-28T03:58:13;101321.75;;;4.25;nan
14343;BME280;7255;53.596;9.960;2023-04-28T04:00:39;101270.41;;;4.16;nan
14343;BME280;7255;53.596;9.960;2023-04-28T04:03:05;101317.28;;;4.09;nan
14343;BME280;7255;53.596;9.960;2023-04-28T04:05:32;101312.78;;;3.93;nan
14343;BME280;7255;53.596;9.960;2023-04-28T04:07:58;101311.97;;;3.93;nan
14343;BME280;7255;53.596;9.960;2023-04-28T04:10:24;101297.50;;;4.03;nan
14343;BME280;7255;53.596;9.960;2023-04-28T04:12:51;101314.59;;;4.17;nan
14343;BME280;7255;53.596;9.960;2023-04-28T04:15:19;101306.94;;;4.22;nan
14343;BME280;7255;53.596;9.960;2023-04-28T04:17:45;101312.25;;;4.39;nan
14343;BME280;7255;53.596;9.960;2023-04-28T04:20:12;101313.25;;;4.30;nan
14343;BME280;7255;53.596;9.960;2023-04-28T04:22:38;101303.94;;;4.34;nan
14343;BME280;7255;53.596;9.960;2023-04-28T04:25:05;101299.59;;;4.41;nan
14343;BME280;7255;53.596;9.960;2023-04-28T04:27:32;101305.78;;;4.41;nan
14343;BME280;7255;53.596;9.960;2023-04-28T04:29:58;101293.66;;;4.31;nan
14343;BME280;7255;53.596;9.960;2023-04-28T04:32:26;101301.94;;;4.36;nan
14343;BME280;7255;53.596;9.960;2023-04-28T04:34:52;101290.13;;;4.38;nan
14343;BME280;7255;53.596;9.960;2023-04-28T04:37:19;101297.47;;;4.36;nan
14343;BME280;7255;53.596;9.960;2023-04-28T04:39:45;101284.78;;;4.55;nan
14343;BME280;7255;53.596;9.960;2023-04-28T04:42:11;101292.94;;;4.53;nan
14343;BME280;7255;53.596;9.960;2023-04-28T04:44:37;101288.56;;;4.60;nan
14343;BME280;7255;53.596;9.960;2023-04-28T04:47:04;101287.59;;;4.53;nan
14343;BME280;7255;53.596;9.960;2023-04-28T04:49:31;101292.06;;;4.69;nan
14343;BME280;7255;53.596;9.960;2023-04-28T04:51:58;101288.78;;;4.90;nan
14343;BME280;7255;53.596;9.960;2023-04-28T04:54:25;101290.22;;;5.01;nan
14343;BME280;7255;53.596;9.960;2023-04-28T04:56:52;101299.03;;;5.10;nan
14343;BME280;7255;53.596;9.960;2023-04-28T04:59:18;101286.34;;;5.12;nan
14343;BME280;7255;53.596;9.960;2023-04-28T05:01:44;101293.69;;;5.10;nan
14343;BME280;7255;53.596;9.960;2023-04-28T05:04:11;101283.16;;;5.16;nan
14343;BME280;7255;53.596;9.960;2023-04-28T05:06:38;101288.03;;;5.36;nan
14343;BME280;7255;53.596;9.960;2023-04-28T05:09:05;101285.19;;;5.37;nan
14343;BME280;7255;53.596;9.960;2023-04-28T05:11:31;101275.84;;;5.42;nan
14343;BME280;7255;53.596;9.960;2023-04-28T05:13:57;101283.41;;;5.53;nan
14343;BME280;7255;53.596;9.960;2023-04-28T05:16:24;101278.22;;;5.59;nan
14343;BME280;7255;53.596;9.960;2023-04-28T05:18:50;101290.44;;;5.77;nan
14343;BME280;7255;53.596;9.960;2023-04-28T05:21:16;101282.69;;;5.82;nan
14343;BME280;7255;53.596;9.960;2023-04-28T05:23:44;101292.19;;;5.85;nan
14343;BME280;7255;53.596;9.960;2023-04-28T05:26:10;101288.88;;;5.83;nan
14343;BME280;7255;53.596;9.960;2023-04-28T05:28:38;101299.28;;;5.92;nan
14343;BME280;7255;53.596;9.960;2023-04-28T05:31:04;101293.12;;;5.92;nan
14343;BME280;7255;53.596;9.960;2023-04-28T05:33:31;101291.69;;;6.04;nan
14343;BME280;7255;53.596;9.960;2023-04-28T05:35:57;101291.47;;;6.14;nan
14343;BME280;7255;53.596;9.960;2023-04-28T05:38:24;101280.97;;;6.27;nan
14343;BME280;7255;53.596;9.960;2023-04-28T05:40:51;101282.38;;;6.38;nan
14343;BME280;7255;53.596;9.960;2023-04-28T05:43:18;101275.19;;;6.53;nan
14343;BME280;7255;53.596;9.960;2023-04-28T05:45:44;101284.69;;;6.56;nan
14343;BME280;7255;53.596;9.960;2023-04-28T05:48:11;101288.06;;;6.65;nan
14343;BME280;7255;53.596;9.960;2023-04-28T05:50:37;101280.25;;;6.63;nan
14343;BME280;7255;53.596;9.960;2023-04-28T05:53:03;101289.53;;;6.82;nan
14343;BME280;7255;53.596;9.960;2023-04-28T05:55:31;101282.97;;;6.85;nan
14343;BME280;7255;53.596;9.960;2023-04-28T05:57:59;101289.69;;;6.96;nan
14343;BME280;7255;53.596;9.960;2023-04-28T06:00:26;101280.81;;;7.10;nan
14343;BME280;7255;53.596;9.960;2023-04-28T06:02:52;101291.22;;;7.20;nan
14343;BME280;7255;53.596;9.960;2023-04-28T06:05:19;101276.59;;;7.37;nan
14343;BME280;7255;53.596;9.960;2023-04-28T06:07:45;101272.16;;;7.44;nan
14343;BME280;7255;53.596;9.960;2023-04-28T06:10:12;101279.09;;;7.39;nan
14343;BME280;7255;53.596;9.960;2023-04-28T06:12:38;101280.47;;;7.56;nan
14343;BME280;7255;53.596;9.960;2023-04-28T06:15:06;101288.44;;;7.71;nan
14343;BME280;7255;53.596;9.960;2023-04-28T06:17:33;101281.09;;;7.80;nan
14343;BME280;7255;53.596;9.960;2023-04-28T06:19:59;101281.72;;;8.03;nan
14343;BME280;7255;53.596;9.960;2023-04-28T06:22:25;101294.63;;;8.21;nan
14343;BME280;7255;53.596;9.960;2023-04-28T06:24:52;101282.59;;;8.10;nan
14343;BME280;7255;53.596;9.960;2023-04-28T06:27:18;101277.63;;;8.07;nan
14343;BME280;7255;53.596;9.960;2023-04-28T06:29:45;101281.78;;;8.10;nan
14343;BME280;7255;53.596;9.960;2023-04-28T06:32:12;101284.34;;;8.25;nan
14343;BME280;7255;53.596;9.960;2023-04-28T06:34:38;101281.81;;;8.17;nan
14343;BME280;7255;53.596;9.960;2023-04-28T06:37:05;101276.28;;;8.46;nan
14343;BME280;7255;53.596;9.960;2023-04-28T06:39:31;101282.19;;;8.70;nan
14343;BME280;7255;53.596;9.960;2023-04-28T06:41:58;101280.91;;;8.66;nan
14343;BME280;7255;53.596;9.960;2023-04-28T06:44:25;101283.09;;;8.91;nan
14343;BME280;7255;53.596;9.960;2023-04-28T06:46:52;101286.03;;;9.09;nan
14343;BME280;7255;53.596;9.960;2023-04-28T06:49:19;101291.03;;;9.32;nan
14343;BME280;7255;53.596;9.960;2023-04-28T06:51:46;101285.66;;;9.19;nan
14343;BME280;7255;53.596;9.960;2023-04-28T06:54:12;101275.38;;;9.29;nan
14343;BME280;7255;53.596;9.960;2023-04-28T06:56:38;101282.41;;;9.37;nan
14343;BME280;7255;53.596;9.960;2023-04-28T06:59:05;101288.63;;;9.51;nan
14343;BME280;7255;53.596;9.960;2023-04-28T07:01:32;101294.84;;;9.64;nan
14343;BME280;7255;53.596;9.960;2023-04-28T07:03:58;101291.13;;;9.66;nan
14343;BME280;7255;53.596;9.960;2023-04-28T07:06:26;101284.50;;;9.68;nan
14343;BME280;7255;53.596;9.960;2023-04-28T07:08:53;101282.03;;;9.73;nan
14343;BME280;7255;53.596;9.960;2023-04-28T07:11:20;101277.91;;;9.91;nan
14343;BME280;7255;53.596;9.960;2023-04-28T07:13:47;101283.72;;;9.88;nan
14343;BME280;7255;53.596;9.960;2023-04-28T07:16:16;101279.16;;;10.08;nan
14343;BME280;7255;53.596;9.960;2023-04-28T07:18:42;101279.97;;;10.09;nan
14343;BME280;7255;53.596;9.960;2023-04-28T07:21:08;101288.66;;;10.31;nan
14343;BME280;7255;53.596;9.960;2023-04-28T07:23:36;101280.75;;;10.29;nan
14343;BME280;7255;53.596;9.960;2023-04-28T07:26:04;101276.66;;;10.20;nan
14343;BME280;7255;53.596;9.960;2023-04-28T07:28:30;101274.16;;;10.52;nan
14343;BME280;7255;53.596;9.960;2023-04-28T07:30:57;101279.09;;;10.55;nan
14343;BME280;7255;53.596;9.960;2023-04-28T07:33:23;101273.63;;;10.82;nan
14343;BME280;7255;53.596;9.960;2023-04-28T07:35:50;101271.16;;;10.87;nan
14343;BME280;7255;53.596;9.960;2023-04-28T07:38:17;101269.47;;;10.92;nan
14343;BME280;7255;53.596;9.960;2023-04-28T07:40:46;101259.03;;;11.09;nan
14343;BME280;7255;53.596;9.960;2023-04-28T07:43:12;101268.09;;;11.15;nan
14343;BME280;7255;53.596;9.960;2023-04-28T07:45:39;101274.31;;;11.15;nan
14343;BME280;7255;53.596;9.960;2023-04-28T07:48:05;101278.75;;;11.35;nan
14343;BME280;7255;53.596;9.960;2023-04-28T07:50:32;101276.66;;;11.37;nan
14343;BME280;7255;53.596;9.960;2023-04-28T07:52:58;101271.59;;;11.54;nan
14343;BME280;7255;53.596;9.960;2023-04-28T07:55:25;101278.47;;;11.75;nan
14343;BME280;7255;53.596;9.960;2023-04-28T07:57:52;101284.22;;;11.85;nan
14343;BME280;7255;53.596;9.960;2023-04-28T08:00:19;101287.91;;;11.91;nan
14343;BME280;7255;53.596;9.960;2023-04-28T08:02:45;101276.22;;;12.04;nan
14343;BME280;7255;53.596;9.960;2023-04-28T08:05:12;101272.41;;;12.11;nan
14343;BME280;7255;53.596;9.960;2023-04-28T08:07:38;101279.31;;;12.26;nan
14343;BME280;7255;53.596;9.960;2023-04-28T08:10:05;101270.25;;;12.20;nan
14343;BME280;7255;53.596;9.960;2023-04-28T08:12:33;101272.28;;;12.25;nan
14343;BME280;7255;53.596;9.960;2023-04-28T08:15:00;101268.03;;;12.36;nan
14343;BME280;7255;53.596;9.960;2023-04-28T08:17:28;101259.12;;;12.54;nan
14343;BME280;7255;53.596;9.960;2023-04-28T08:19:54;101257.34;;;12.66;nan
14343;BME280;7255;53.596;9.960;2023-04-28T08:22:20;101268.31;;;12.83;nan
14343;BME280;7255;53.596;9.960;2023-04-28T08:24:46;101264.13;;;12.87;nan
14343;BME280;7255;53.596;9.960;2023-04-28T08:27:13;101258.84;;;13.10;nan
14343;BME280;7255;53.596;9.960;2023-04-28T08:29:39;101262.97;;;13.43;nan
14343;BME280;7255;53.596;9.960;2023-04-28T08:32:07;101272.06;;;13.73;nan
14343;BME280;7255;53.596;9.960;2023-04-28T08:34:34;101267.03;;;13.76;nan
14343;BME280;7255;53.596;9.960;2023-04-28T08:37:00;101270.69;;;13.82;nan
14343;BME280;7255;53.596;9.960;2023-04-28T08:39:30;101264.47;;;13.81;nan
14343;BME280;7255;53.596;9.960;2023-04-28T08:41:58;101258.81;;;13.95;nan
14343;BME280;7255;53.596;9.960;2023-04-28T08:44:24;101257.41;;;14.04;nan
14343;BME280;7255;53.596;9.960;2023-04-28T08:46:53;101266.34;;;14.16;nan
14343;BME280;7255;53.596;9.960;2023-04-28T08:49:29;101269.88;;;14.29;nan
14343;BME280;7255;53.596;9.960;2023-04-28T08:51:58;101263.94;;;14.55;nan
14343;BME280;7255;53.596;9.960;2023-04-28T08:54:29;101264.34;;;14.47;nan
14343;BME280;7255;53.596;9.960;2023-04-28T08:56:56;101255.88;;;14.43;nan
14343;BME280;7255;53.596;9.960;2023-04-28T08:59:23;101260.09;;;14.39;nan
14343;BME280;7255;53.596;9.960;2023-04-28T09:01:49;101250.59;;;14.37;nan
14343;BME280;7255;53.596;9.960;2023-04-28T09:04:16;101246.59;;;14.28;nan
14343;BME280;7255;53.596;9.960;2023-04-28T09:06:44;101246.78;;;14.61;nan
14343;BME280;7255;53.596;9.960;2023-04-28T09:09:17;101240.78;;;14.71;nan
14343;BME280;7255;53.596;9.960;2023-04-28T09:11:50;101236.69;;;14.57;nan
14343;BME280;7255;53.596;9.960;2023-04-28T09:14:16;101245.41;;;14.47;nan
14343;BME280;7255;53.596;9.960;2023-04-28T09:16:42;101245.25;;;14.54;nan
14343;BME280;7255;53.596;9.960;2023-04-28T09:19:09;101242.00;;;14.92;nan
14343;BME280;7255;53.596;9.960;2023-04-28T09:21:49;101229.75;;;14.61;nan
14343;BME280;7255;53.596;9.960;2023-04-28T09:24:26;101230.47;;;14.44;nan
14343;BME280;7255;53.596;9.960;2023-04-28T09:26:53;101233.16;;;14.44;nan
14343;BME280;7255;53.596;9.960;2023-04-28T09:29:19;101212.66;;;14.20;nan
14343;BME280;7255;53.596;9.960;2023-04-28T09:31:46;101229.53;;;14.39;nan
14343;BME280;7255;53.596;9.960;2023-04-28T09:34:12;101217.81;;;14.10;nan
14343;BME280;7255;53.596;9.960;2023-04-28T09:36:39;101210.53;;;14.22;nan
14343;BME280;7255;53.596;9.960;2023-04-28T09:39:07;101226.53;;;14.76;nan
14343;BME280;7255;53.596;9.960;2023-04-28T09:41:37;101221.88;;;14.59;nan
14343;BME280;7255;53.596;9.960;2023-04-28T09:44:11;101219.34;;;14.81;nan
14343;BME280;7255;53.596;9.960;2023-04-28T09:46:38;101228.47;;;15.21;nan
14343;BME280;7255;53.596;9.960;2023-04-28T09:49:05;101224.88;;;15.32;nan
14343;BME280;7255;53.596;9.960;2023-04-28T09:51:32;101223.37;;;15.25;nan
14343;BME280;7255;53.596;9.960;2023-04-28T09:54:00;101229.00;;;15.52;nan
14343;BME280;7255;53.596;9.960;2023-04-28T09:56:28;101228.81;;;15.42;nan
14343;BME280;7255;53.596;9.960;2023-04-28T09:58:56;101221.44;;;15.54;nan
14343;BME280;7255;53.596;9.960;2023-04-28T10:01:23;101208.31;;;15.46;nan
14343;BME280;7255;53.596;9.960;2023-04-28T10:03:51;101204.69;;;15.23;nan
14343;BME280;7255;53.596;9.960;2023-04-28T10:06:18;101209.97;;;15.81;nan
14343;BME280;7255;53.596;9.960;2023-04-28T10:08:45;101215.34;;;16.14;nan
14343;BME280;7255;53.596;9.960;2023-04-28T10:11:13;101208.91;;;16.21;nan
14343;BME280;7255;53.596;9.960;2023-04-28T10:13:41;101193.84;;;16.52;nan
14343;BME280;7255;53.596;9.960;2023-04-28T10:16:09;101193.28;;;16.72;nan
14343;BME280;7255;53.596;9.960;2023-04-28T10:18:35;101182.59;;;16.38;nan
14343;BME280;7255;53.596;9.960;2023-04-28T10:21:04;101185.53;;;16.14;nan
14343;BME280;7255;53.596;9.960;2023-04-28T10:23:59;101182.59;;;16.38;nan
14343;BME280;7255;53.596;9.960;2023-04-28T10:26:55;101178.91;;;16.05;nan
14343;BME280;7255;53.596;9.960;2023-04-28T10:29:25;101177.34;;;16.31;nan
14343;BME280;7255;53.596;9.960;2023-04-28T10:32:14;101174.00;;;16.46;nan
14343;BME280;7255;53.596;9.960;2023-04-28T10:34:40;101170.44;;;16.68;nan
14343;BME280;7255;53.596;9.960;2023-04-28T10:37:06;101163.47;;;16.77;nan
14343;BME280;7255;53.596;9.960;2023-04-28T10:39:33;101154.34;;;16.34;nan
14343;BME280;7255;53.596;9.960;2023-04-28T10:42:00;101149.84;;;16.45;nan
14343;BME280;7255;53.596;9.960;2023-04-28T10:44:41;101151.66;;;15.95;nan
14343;BME280;7255;53.596;9.960;2023-04-28T10:47:09;101146.63;;;16.26;nan
14343;BME280;7255;53.596;9.960;2023-04-28T10:50:05;101149.25;;;16.65;nan
14343;BME280;7255;53.596;9.960;2023-04-28T10:52:47;101145.81;;;16.97;nan
14343;BME280;7255;53.596;9.960;2023-04-28T10:55:30;101153.38;;;16.95;nan
14343;BME280;7255;53.596;9.960;2023-04-28T10:58:31;101152.84;;;16.98;nan
14343;BME280;7255;53.596;9.960;2023-04-28T11:01:25;101154.38;;;17.48;nan
14343;BME280;7255;53.596;9.960;2023-04-28T11:03:54;101144.06;;;16.85;nan
14343;BME280;7255;53.596;9.960;2023-04-28T11:06:28;101144.53;;;16.55;nan
14343;BME280;7255;53.596;9.960;2023-04-28T11:08:56;101144.34;;;16.62;nan
14343;BME280;7255;53.596;9.960;2023-04-28T11:11:25;101154.06;;;17.12;nan
14343;BME280;7255;53.596;9.960;2023-04-28T11:13:53;101148.22;;;17.25;nan
14343;BME280;7255;53.596;9.960;2023-04-28T11:16:21;101149.59;;;17.60;nan
14343;BME280;7255;53.596;9.960;2023-04-28T11:18:52;101146.22;;;17.85;nan
14343;BME280;7255;53.596;9.960;2023-04-28T11:21:19;101139.28;;;17.67;nan
14343;BME280;7255;53.596;9.960;2023-04-28T11:23:46;101125.97;;;17.66;nan
14343;BME280;7255;53.596;9.960;2023-04-28T11:26:13;101130.50;;;17.18;nan
14343;BME280;7255;53.596;9.960;2023-04-28T11:28:46;101129.16;;;17.58;nan
14343;BME280;7255;53.596;9.960;2023-04-28T11:31:13;101121.28;;;17.56;nan
14343;BME280;7255;53.596;9.960;2023-04-28T11:33:44;101125.97;;;17.28;nan
14343;BME280;7255;53.596;9.960;2023-04-28T11:36:31;101133.41;;;17.43;nan
14343;BME280;7255;53.596;9.960;2023-04-28T11:39:00;101128.03;;;17.91;nan
14343;BME280;7255;53.596;9.960;2023-04-28T11:41:26;101124.41;;;17.38;nan
14343;BME280;7255;53.596;9.960;2023-04-28T11:43:53;101120.78;;;18.07;nan
14343;BME280;7255;53.596;9.960;2023-04-28T11:46:20;101120.81;;;17.64;nan
14343;BME280;7255;53.596;9.960;2023-04-28T11:48:47;101112.16;;;17.78;nan
14343;BME280;7255;53.596;9.960;2023-04-28T11:51:33;101108.50;;;17.99;nan
14343;BME280;7255;53.596;9.960;2023-04-28T11:54:01;101103.38;;;18.13;nan
14343;BME280;7255;53.596;9.960;2023-04-28T11:56:28;101113.12;;;17.99;nan
14343;BME280;7255;53.596;9.960;2023-04-28T11:59:04;101099.78;;;17.49;nan
14343;BME280;7255;53.596;9.960;2023-04-28T12:01:32;101111.03;;;17.26;nan
14343;BME280;7255;53.596;9.960;2023-04-28T12:04:01;101102.28;;;16.86;nan
14343;BME280;7255;53.596;9.960;2023-04-28T12:06:28;101107.19;;;16.62;nan
14343;BME280;7255;53.596;9.960;2023-04-28T12:08:55;101098.41;;;16.82;nan
14343;BME280;7255;53.596;9.960;2023-04-28T12:11:26;101088.47;;;16.88;nan
14343;BME280;7255;53.596;9.960;2023-04-28T12:14:03;101100.44;;;17.24;nan
14343;BME280;7255;53.596;9.960;2023-04-28T12:16:37;101087.38;;;17.21;nan
14343;BME280;7255;53.596;9.960;2023-04-28T12:19:07;101088.47;;;17.25;nan
14343;BME280;7255;53.596;9.960;2023-04-28T12:21:35;101092.50;;;17.18;nan
14343;BME280;7255;53.596;9.960;2023-04-28T12:24:14;101079.50;;;16.87;nan
14343;BME280;7255;53.596;9.960;2023-04-28T12:26:40;101076.66;;;16.77;nan
14343;BME280;7255;53.596;9.960;2023-04-28T12:29:07;101066.44;;;16.57;nan
14343;BME280;7255;53.596;9.960;2023-04-28T12:31:46;101070.00;;;16.63;nan
14343;BME280;7255;53.596;9.960;2023-04-28T12:34:13;101055.19;;;16.70;nan
14343;BME280;7255;53.596;9.960;2023-04-28T12:36:39;101058.03;;;16.59;nan
14343;BME280;7255;53.596;9.960;2023-04-28T12:39:13;101048.09;;;16.69;nan
14343;BME280;7255;53.596;9.960;2023-04-28T12:41:41;101044.34;;;16.43;nan
14343;BME280;7255;53.596;9.960;2023-04-28T12:44:08;101030.41;;;16.62;nan
14343;BME280;7255;53.596;9.960;2023-04-28T12:46:35;101033.37;;;16.33;nan
14343;BME280;7255;53.596;9.960;2023-04-28T12:49:01;101038.09;;;16.43;nan
14343;BME280;7255;53.596;9.960;2023-04-28T12:51:27;101045.78;;;16.51;nan
14343;BME280;7255;53.596;9.960;2023-04-28T12:53:54;101031.03;;;16.69;nan
14343;BME280;7255;53.596;9.960;2023-04-28T12:56:22;101033.87;;;16.57;nan
14343;BME280;7255;53.596;9.960;2023-04-28T12:58:48;101043.94;;;16.29;nan
14343;BME280;7255;53.596;9.960;2023-04-28T13:01:15;101033.06;;;16.57;nan
14343;BME280;7255;53.596;9.960;2023-04-28T13:03:41;101034.13;;;16.50;nan
14343;BME280;7255;53.596;9.960;2023-04-28T13:06:08;101027.69;;;16.62;nan
14343;BME280;7255;53.596;9.960;2023-04-28T13:08:35;101035.84;;;16.62;nan
14343;BME280;7255;53.596;9.960;2023-04-28T13:11:02;101026.53;;;16.52;nan
14343;BME280;7255;53.596;9.960;2023-04-28T13:13:30;101033.87;;;16.57;nan
14343;BME280;7255;53.596;9.960;2023-04-28T13:15:56;101035.53;;;16.58;nan
14343;BME280;7255;53.596;9.960;2023-04-28T13:18:23;101024.19;;;16.34;nan
14343;BME280;7255;53.596;9.960;2023-04-28T13:20:49;101018.66;;;16.24;nan
14343;BME280;7255;53.596;9.960;2023-04-28T13:23:15;101018.84;;;15.90;nan
14343;BME280;7255;53.596;9.960;2023-04-28T13:25:41;101010.66;;;15.85;nan
14343;BME280;7255;53.596;9.960;2023-04-28T13:28:08;101000.66;;;15.68;nan
14343;BME280;7255;53.596;9.960;2023-04-28T13:30:36;101006.91;;;15.91;nan